Time;durP1;ratioP1;P1;durP2;ratioP2;P2;SDS_P1;SDS_P2;PMS_P1;PMS_P2;Temp;Humidity;BMP_temperature;BMP_pressure;BME280_temperature;BME280_humidity;BME280_pressure;Samples;Min_cycle;Max_cycle;Signal;HPM_P1;HPM_P2
2023/05/30 00:01:28;;;;;;;15.63;8.07;;;;;;;14.94;100.00;100257.73;1440858;90;21368;-83
2023/05/30 00:03:55;;;;;;;12.70;7.70;;;;;;;14.93;100.00;100258.72;1495222;87;21346;-79
2023/05/30 00:06:22;;;;;;;13.43;7.33;;;;;;;14.89;100.00;100262.26;1494001;86;21560;-83
2023/05/30 00:08:48;;;;;;;10.37;7.33;;;;;;;14.86;100.00;100259.95;1493778;86;22254;-84
2023/05/30 00:11:14;;;;;;;11.73;8.00;;;;;;;14.85;100.00;100260.97;1500846;86;21367;-83
2023/05/30 00:13:44;;;;;;;10.07;6.33;;;;;;;14.87;100.00;100264.30;1492873;87;21339;-82
2023/05/30 00:16:12;;;;;;;10.60;6.20;;;;;;;14.85;100.00;100260.97;1490339;86;21568;-83
2023/05/30 00:18:39;;;;;;;13.57;6.63;;;;;;;14.84;100.00;100269.12;1489722;86;21716;-82
2023/05/30 00:21:07;;;;;;;9.87;7.10;;;;;;;14.81;100.00;100268.98;1492225;86;21286;-83
2023/05/30 00:23:39;;;;;;;11.53;7.20;;;;;;;14.80;100.00;100272.66;1491447;86;21511;-81
2023/05/30 00:26:08;;;;;;;12.13;6.97;;;;;;;14.79;100.00;100268.86;1494137;86;21412;-82
2023/05/30 00:28:34;;;;;;;17.53;8.53;;;;;;;14.77;100.00;100266.36;1387619;90;21391;-81
2023/05/30 00:31:00;;;;;;;11.63;7.93;;;;;;;14.73;100.00;100270.41;1436254;90;21396;-84
2023/05/30 00:33:26;;;;;;;14.10;7.30;;;;;;;14.68;100.00;100267.44;1479547;87;21391;-83
2023/05/30 00:35:52;;;;;;;11.73;6.43;;;;;;;14.59;100.00;100266.67;1428901;90;21347;-84
2023/05/30 00:38:18;;;;;;;8.93;6.70;;;;;;;14.51;100.00;100263.20;1435659;90;21590;-84
2023/05/30 00:40:45;;;;;;;7.27;5.97;;;;;;;14.46;100.00;100258.41;1449521;90;21534;-81
2023/05/30 00:43:11;;;;;;;9.97;7.53;;;;;;;14.43;100.00;100263.58;1489089;87;21352;-83
2023/05/30 00:45:37;;;;;;;12.97;7.37;;;;;;;14.41;100.00;100264.27;1495237;86;21411;-86
2023/05/30 00:48:05;;;;;;;10.47;6.47;;;;;;;14.39;100.00;100262.79;1488612;87;21525;-85
2023/05/30 00:50:33;;;;;;;12.10;6.77;;;;;;;14.36;100.00;100263.14;1498705;86;22270;-85
2023/05/30 00:53:00;;;;;;;14.97;7.77;;;;;;;14.34;100.00;100269.14;1488776;86;21474;-83
2023/05/30 00:55:27;;;;;;;14.17;8.80;;;;;;;14.32;100.00;100262.64;1491300;86;21383;-82
2023/05/30 00:57:55;;;;;;;13.03;8.77;;;;;;;14.29;100.00;100266.98;1493257;87;21515;-83
2023/05/30 01:00:24;;;;;;;15.97;9.93;;;;;;;14.24;100.00;100268.02;1497432;86;21338;-84
2023/05/30 01:02:51;;;;;;;13.53;8.53;;;;;;;14.21;100.00;100267.03;1441155;90;21444;-82
2023/05/30 01:05:19;;;;;;;12.27;7.97;;;;;;;14.20;100.00;100264.88;1453208;89;21568;-85
2023/05/30 01:07:45;;;;;;;9.97;7.57;;;;;;;14.20;100.00;100261.39;1468946;88;21309;-84
2023/05/30 01:10:13;;;;;;;10.60;8.03;;;;;;;14.16;100.00;100261.43;1459648;88;22330;-85
2023/05/30 01:12:44;;;;;;;13.40;8.33;;;;;;;14.10;100.00;100263.46;1470669;88;21376;-84
2023/05/30 01:15:18;;;;;;;10.00;7.27;;;;;;;14.03;100.00;100260.65;1463843;89;21301;-84
2023/05/30 01:18:03;;;;;;;12.77;7.97;;;;;;;13.98;100.00;100267.84;1467665;88;21442;-83
2023/05/30 01:20:40;;;;;;;13.83;7.37;;;;;;;13.95;100.00;100260.20;1471795;88;22376;-83
2023/05/30 01:23:33;;;;;;;13.07;8.73;;;;;;;13.90;100.00;100265.21;1473847;88;21456;-82
2023/05/30 01:26:44;;;;;;;14.27;8.67;;;;;;;13.82;100.00;100258.59;1459761;89;21354;-83
2023/05/30 01:29:17;;;;;;;15.00;8.20;;;;;;;13.76;100.00;100258.78;1430118;89;21434;-79
2023/05/30 01:31:44;;;;;;;12.37;7.93;;;;;;;13.69;100.00;100254.31;1473711;88;21619;-82
2023/05/30 01:34:13;;;;;;;10.73;7.53;;;;;;;13.66;100.00;100250.66;1468651;89;21413;-83
2023/05/30 01:36:39;;;;;;;14.67;7.57;;;;;;;13.58;100.00;100249.36;1468643;89;22410;-81
2023/05/30 01:39:06;;;;;;;13.53;7.53;;;;;;;13.54;100.00;100255.02;1471207;89;21368;-81
2023/05/30 01:42:11;;;;;;;11.17;7.40;;;;;;;13.53;100.00;100253.38;1453518;89;21590;-82
2023/05/30 01:44:53;;;;;;;18.43;8.27;;;;;;;13.53;100.00;100260.02;1471602;88;21486;-80
2023/05/30 01:48:01;;;;;;;13.83;7.80;;;;;;;13.53;100.00;100262.68;1454528;89;22310;-81
2023/05/30 01:50:32;;;;;;;12.73;7.97;;;;;;;13.52;100.00;100261.03;1465041;88;22454;-81
2023/05/30 01:53:02;;;;;;;10.27;7.20;;;;;;;13.52;100.00;100259.70;1465736;88;22017;-82
2023/05/30 01:55:31;;;;;;;10.23;7.27;;;;;;;13.51;100.00;100260.69;1470349;89;21346;-82
2023/05/30 01:57:58;;;;;;;13.53;7.40;;;;;;;13.50;100.00;100261.70;1468932;89;21509;-82
2023/05/30 02:00:26;;;;;;;13.17;8.63;;;;;;;13.49;100.00;100261.37;1463585;89;21309;-83
2023/05/30 02:02:53;;;;;;;11.37;8.27;;;;;;;13.49;100.00;100268.02;1480762;87;22286;-84
2023/05/30 02:05:19;;;;;;;12.23;8.93;;;;;;;13.47;100.00;100266.53;1428599;91;21362;-84
2023/05/30 02:07:46;;;;;;;19.00;7.30;;;;;;;13.44;100.00;100270.86;1486947;87;21497;-86
2023/05/30 02:10:12;;;;;;;13.03;8.20;;;;;;;13.40;100.00;100265.03;1488552;87;21471;-85
2023/05/30 02:12:38;;;;;;;13.87;7.63;;;;;;;13.38;100.00;100260.87;1496970;87;22446;-84
2023/05/30 02:15:06;;;;;;;13.73;8.10;;;;;;;13.34;100.00;100264.89;1491142;87;21361;-85
2023/05/30 02:17:32;;;;;;;12.07;6.93;;;;;;;13.27;100.00;100260.76;1498141;87;21368;-82
2023/05/30 02:19:59;;;;;;;16.30;7.60;;;;;;;13.23;100.00;100264.70;1485822;87;21345;-86
2023/05/30 02:22:25;;;;;;;16.27;8.53;;;;;;;13.21;100.00;100264.89;1492385;87;22491;-86
2023/05/30 02:24:52;;;;;;;12.83;7.77;;;;;;;13.24;100.00;100271.19;1491213;87;22011;-78
2023/05/30 02:27:18;;;;;;;12.90;6.60;;;;;;;13.24;100.00;100273.02;1488572;87;22197;-79
2023/05/30 02:29:44;;;;;;;12.53;8.03;;;;;;;13.20;100.00;100275.16;1484279;87;21390;-79
2023/05/30 02:32:10;;;;;;;23.80;8.63;;;;;;;13.19;100.00;100276.68;1490512;87;21568;-79
2023/05/30 02:34:37;;;;;;;10.07;7.30;;;;;;;13.17;100.00;100276.01;1489668;87;22292;-79
2023/05/30 02:37:04;;;;;;;13.80;7.90;;;;;;;13.16;100.00;100279.67;1467753;87;21324;-79
2023/05/30 02:39:32;;;;;;;10.47;7.73;;;;;;;13.14;100.00;100273.69;1492463;87;21530;-80
2023/05/30 02:41:58;;;;;;;13.07;7.57;;;;;;;13.07;100.00;100277.02;1489521;87;21324;-80
2023/05/30 02:44:24;;;;;;;16.17;7.67;;;;;;;13.03;100.00;100277.04;1488443;87;21596;-79
2023/05/30 02:46:51;;;;;;;13.37;7.47;;;;;;;13.02;100.00;100274.53;1467383;87;21441;-79
2023/05/30 02:49:18;;;;;;;14.10;7.43;;;;;;;13.02;100.00;100274.03;1466838;87;21479;-79
2023/05/30 02:51:45;;;;;;;13.27;6.73;;;;;;;13.00;100.00;100271.20;1428105;91;21398;-79
2023/05/30 02:54:11;;;;;;;7.87;5.87;;;;;;;12.99;100.00;100279.68;1488103;87;21520;-79
2023/05/30 02:56:37;;;;;;;15.63;6.53;;;;;;;13.00;100.00;100272.03;1429426;90;22950;-80
2023/05/30 02:59:04;;;;;;;19.43;7.70;;;;;;;13.04;100.00;100275.20;1469160;87;21457;-79
2023/05/30 03:01:30;;;;;;;11.67;7.43;;;;;;;13.04;100.00;100275.20;1492288;87;21500;-79
2023/05/30 03:03:56;;;;;;;12.00;6.30;;;;;;;13.03;100.00;100271.73;1476863;87;22373;-80
2023/05/30 03:06:24;;;;;;;11.67;6.70;;;;;;;13.04;100.00;100268.56;1495537;87;22219;-79
2023/05/30 03:08:59;;;;;;;11.73;6.90;;;;;;;13.06;100.00;100278.03;1486737;87;21412;-78
2023/05/30 03:11:25;;;;;;;11.43;6.80;;;;;;;13.07;100.00;100271.70;1485306;87;21924;-79
2023/05/30 03:13:52;;;;;;;10.30;7.13;;;;;;;13.09;100.00;100276.37;1481162;87;21359;-79
2023/05/30 03:16:19;;;;;;;15.27;8.03;;;;;;;13.07;100.00;100274.87;1500381;87;21522;-79
2023/05/30 03:18:45;;;;;;;15.13;7.00;;;;;;;13.03;100.00;100277.04;1492852;87;21353;-79
2023/05/30 03:21:11;;;;;;;13.93;7.83;;;;;;;12.97;100.00;100280.33;1484930;87;21446;-79
2023/05/30 03:23:38;;;;;;;14.00;7.50;;;;;;;12.96;100.00;100280.02;1489373;87;21338;-79
2023/05/30 03:26:06;;;;;;;12.03;7.07;;;;;;;12.99;100.00;100284.99;1487908;87;22403;-80
2023/05/30 03:28:33;;;;;;;11.93;7.47;;;;;;;13.01;100.00;100289.65;1445428;90;21494;-80
2023/05/30 03:31:00;;;;;;;12.83;8.10;;;;;;;13.04;100.00;100288.48;1466788;87;22328;-80
2023/05/30 03:33:28;;;;;;;11.20;6.83;;;;;;;13.08;100.00;100291.95;1479213;87;21830;-79
2023/05/30 03:35:54;;;;;;;14.67;7.43;;;;;;;13.14;100.00;100293.62;1444895;90;22278;-80
2023/05/30 03:38:21;;;;;;;11.30;7.27;;;;;;;13.19;100.00;100296.61;1491823;87;21511;-81
2023/05/30 03:40:47;;;;;;;15.53;8.10;;;;;;;13.24;100.00;100301.75;1487563;87;21338;-81
2023/05/30 03:43:13;;;;;;;10.27;7.10;;;;;;;13.30;100.00;100305.09;1499447;87;22085;-81
2023/05/30 03:45:40;;;;;;;14.27;7.20;;;;;;;13.35;100.00;100309.06;1444750;90;21715;-86
2023/05/30 03:48:06;;;;;;;12.10;7.30;;;;;;;13.39;100.00;100309.08;1485882;87;21354;-89
2023/05/30 03:50:32;;;;;;;8.97;7.47;;;;;;;13.36;100.00;100318.22;1489426;87;21450;-89
2023/05/30 03:52:58;;;;;;;12.93;7.23;;;;;;;13.34;100.00;100320.20;1483151;87;21564;-88
2023/05/30 03:55:24;;;;;;;15.53;7.53;;;;;;;13.36;100.00;100316.89;1447917;90;21525;-89
2023/05/30 03:57:50;;;;;;;9.67;7.13;;;;;;;13.41;100.00;100317.22;1487531;87;21316;-86
2023/05/30 04:00:17;;;;;;;10.97;7.17;;;;;;;13.47;100.00;100316.53;1490930;87;22418;-89
2023/05/30 04:02:44;;;;;;;15.90;7.53;;;;;;;13.52;100.00;100314.21;1489963;87;22414;-87
2023/05/30 04:05:10;;;;;;;17.07;7.17;;;;;;;13.56;100.00;100313.87;1490069;87;21595;-87
2023/05/30 04:07:36;;;;;;;15.13;7.07;;;;;;;13.59;100.00;100308.20;1481223;87;21413;-87
2023/05/30 04:10:03;;;;;;;12.50;7.03;;;;;;;13.65;100.00;100310.19;1426236;91;21621;-87
2023/05/30 04:12:30;;;;;;;14.00;7.63;;;;;;;13.69;100.00;100312.82;1488809;87;21536;-87
2023/05/30 04:14:56;;;;;;;8.50;6.87;;;;;;;13.74;100.00;100305.98;1487011;87;22337;-87
2023/05/30 04:17:22;;;;;;;14.47;7.50;;;;;;;13.79;100.00;100316.13;1481095;87;21471;-87
2023/05/30 04:19:50;;;;;;;13.87;8.13;;;;;;;13.85;100.00;100316.77;1428527;91;21266;-88
2023/05/30 04:22:16;;;;;;;13.40;8.20;;;;;;;13.90;100.00;100318.42;1485871;87;21339;-87
2023/05/30 04:24:45;;;;;;;15.90;8.10;;;;;;;13.98;100.00;100321.05;1490960;87;21939;-88
2023/05/30 04:27:13;;;;;;;9.73;6.47;;;;;;;14.07;100.00;100315.20;1492517;87;21486;-86
2023/05/30 04:29:42;;;;;;;14.07;5.80;;;;;;;14.18;100.00;100319.28;1427137;90;21495;-88
2023/05/30 04:32:10;;;;;;;20.57;8.03;;;;;;;14.27;100.00;100323.59;1480297;87;22211;-87
2023/05/30 04:34:39;;;;;;;12.77;7.57;;;;;;;14.41;100.00;100328.17;1486896;87;21381;-87
2023/05/30 04:37:06;;;;;;;9.50;7.40;;;;;;;14.54;100.00;100328.13;1429523;90;21462;-87
2023/05/30 04:39:35;;;;;;;12.23;6.57;;;;;;;14.63;100.00;100325.73;1490403;87;21727;-86
2023/05/30 04:42:04;;;;;;;20.20;6.77;;;;;;;14.72;100.00;100328.66;1485741;87;21434;-87
2023/05/30 04:44:29;;;;;;;14.63;6.80;;;;;;;14.82;99.90;100330.61;1463281;87;21441;-86
2023/05/30 04:46:55;;;;;;;12.50;6.50;;;;;;;14.89;99.46;100330.72;1425718;91;21472;-85
2023/05/30 04:49:21;;;;;;;11.17;6.17;;;;;;;14.96;98.00;100335.67;1463819;87;21526;-87
2023/05/30 04:51:47;;;;;;;16.33;7.47;;;;;;;15.04;96.44;100336.09;1495250;87;22285;-87
2023/05/30 04:54:13;;;;;;;9.60;6.20;;;;;;;15.12;95.00;100341.36;1433797;90;21538;-85
2023/05/30 04:56:40;;;;;;;9.30;6.67;;;;;;;15.19;94.41;100342.31;1470133;87;21330;-86
2023/05/30 04:59:06;;;;;;;8.07;6.27;;;;;;;15.27;94.75;100344.89;1464160;87;21941;-85
2023/05/30 05:01:35;;;;;;;11.13;6.17;;;;;;;15.35;93.55;100346.16;1488871;87;21952;-85
2023/05/30 05:04:01;;;;;;;11.10;7.00;;;;;;;15.44;91.16;100347.41;1421471;90;21444;-86
2023/05/30 05:06:27;;;;;;;13.37;6.43;;;;;;;15.58;92.81;100347.94;1471546;88;21376;-85
2023/05/30 05:08:54;;;;;;;13.00;6.40;;;;;;;15.76;93.73;100355.11;1449717;89;22470;-85
2023/05/30 05:11:21;;;;;;;13.23;6.73;;;;;;;15.87;91.52;100350.34;1462757;89;21592;-85
2023/05/30 05:13:47;;;;;;;14.23;6.60;;;;;;;15.96;90.92;100346.05;1431137;89;22236;-84
2023/05/30 05:16:14;;;;;;;18.93;6.97;;;;;;;16.04;90.13;100344.31;1465043;88;21344;-85
2023/05/30 05:18:40;;;;;;;10.90;7.43;;;;;;;16.10;89.02;100341.72;1468582;89;21354;-84
2023/05/30 05:21:06;;;;;;;11.80;6.80;;;;;;;16.22;89.99;100338.89;1426065;89;21412;-84
2023/05/30 05:23:32;;;;;;;10.77;7.20;;;;;;;16.37;89.61;100343.38;1460620;89;21339;-85
2023/05/30 05:26:00;;;;;;;13.13;6.03;;;;;;;16.42;87.86;100344.98;1473877;88;21601;-85
2023/05/30 05:28:26;;;;;;;14.43;6.33;;;;;;;16.50;88.53;100346.73;1465222;88;21420;-85
2023/05/30 05:30:52;;;;;;;16.80;6.87;;;;;;;16.61;88.48;100348.40;1463921;88;21375;-85
2023/05/30 05:33:19;;;;;;;12.97;6.97;;;;;;;16.72;88.06;100347.59;1463692;88;21345;-86
2023/05/30 05:35:46;;;;;;;13.57;6.97;;;;;;;16.89;87.85;100350.38;1468733;88;21398;-85
2023/05/30 05:38:13;;;;;;;10.07;6.83;;;;;;;17.08;88.07;100345.70;1466498;89;21324;-85
2023/05/30 05:40:39;;;;;;;13.33;6.80;;;;;;;17.29;88.32;100344.02;1467934;88;22528;-85
2023/05/30 05:43:05;;;;;;;13.63;5.80;;;;;;;17.47;87.06;100341.71;1465613;88;21442;-86
2023/05/30 05:45:32;;;;;;;10.57;6.90;;;;;;;17.54;82.57;100343.91;1467517;88;21375;-86
2023/05/30 05:47:58;;;;;;;10.50;6.10;;;;;;;17.75;84.81;100352.89;1464814;88;22329;-79
2023/05/30 05:50:24;;;;;;;10.63;5.83;;;;;;;17.93;83.34;100361.29;1462775;89;21397;-83
2023/05/30 05:52:50;;;;;;;17.93;5.97;;;;;;;18.10;82.71;100366.33;1450049;89;21516;-82
2023/05/30 05:55:16;;;;;;;10.27;5.93;;;;;;;18.25;80.80;100365.67;1473435;88;21392;-85
2023/05/30 05:57:42;;;;;;;23.63;6.87;;;;;;;18.33;81.09;100364.17;1457818;89;21531;-85
2023/05/30 06:00:09;;;;;;;17.15;7.33;;;;;;;18.38;81.17;100363.55;1463387;88;21435;-85
2023/05/30 06:02:36;;;;;;;11.35;6.30;;;;;;;18.47;79.56;100369.89;1468423;88;21367;-85
2023/05/30 06:05:03;;;;;;;11.50;5.45;;;;;;;18.59;79.05;100367.98;1478103;87;21515;-86
2023/05/30 06:07:29;;;;;;;15.00;7.03;;;;;;;18.78;79.57;100365.87;1488767;87;21419;-85
2023/05/30 06:10:00;;;;;;;10.08;6.40;;;;;;;18.98;78.61;100370.45;1439992;90;21568;-86
2023/05/30 06:12:26;;;;;;;9.90;6.60;;;;;;;19.14;76.82;100364.70;1472374;87;21514;-84
2023/05/30 06:14:52;;;;;;;11.55;5.60;;;;;;;19.34;78.35;100372.25;1492215;87;21308;-85
2023/05/30 06:17:18;;;;;;;11.48;6.58;;;;;;;19.52;76.62;100373.48;1439227;90;21517;-85
2023/05/30 06:19:44;;;;;;;8.35;5.85;;;;;;;19.71;76.93;100378.05;1488001;87;21442;-84
2023/05/30 06:22:11;;;;;;;11.57;6.25;;;;;;;19.80;72.47;100377.31;1487964;87;21479;-84
2023/05/30 06:24:37;;;;;;;21.65;6.03;;;;;;;19.92;74.14;100376.14;1489442;87;22351;-86
2023/05/30 06:27:03;;;;;;;12.70;5.45;;;;;;;20.10;73.92;100376.30;1442310;90;21421;-86
2023/05/30 06:29:30;;;;;;;8.43;5.70;;;;;;;20.20;71.96;100379.37;1438454;90;21420;-85
2023/05/30 06:31:59;;;;;;;15.18;5.92;;;;;;;20.33;72.23;100375.80;1489427;87;21449;-85
2023/05/30 06:34:29;;;;;;;13.55;5.55;;;;;;;20.42;70.78;100371.01;1486545;87;22336;-86
2023/05/30 06:36:54;;;;;;;13.68;5.92;;;;;;;20.53;71.58;100374.41;1486358;87;22285;-84
2023/05/30 06:39:22;;;;;;;9.58;6.17;;;;;;;20.54;70.78;100378.73;1488630;87;22386;-84
2023/05/30 06:41:48;;;;;;;7.50;5.17;;;;;;;20.46;68.52;100377.62;1489544;87;21330;-85
2023/05/30 06:44:16;;;;;;;13.50;6.08;;;;;;;20.50;68.55;100374.80;1489729;87;21397;-85
2023/05/30 06:46:48;;;;;;;8.75;5.80;;;;;;;20.40;67.75;100372.58;1490751;87;21368;-85
2023/05/30 06:49:14;;;;;;;16.77;6.10;;;;;;;20.38;69.43;100376.52;1487236;87;21864;-84
2023/05/30 06:51:40;;;;;;;15.40;6.05;;;;;;;20.44;68.77;100369.76;1487992;87;21361;-85
2023/05/30 06:54:07;;;;;;;9.63;5.62;;;;;;;20.50;67.18;100368.08;1443279;90;21346;-83
2023/05/30 06:56:34;;;;;;;12.63;6.37;;;;;;;20.71;68.91;100367.81;1487980;87;21360;-84
2023/05/30 06:59:03;;;;;;;9.83;5.72;;;;;;;20.73;65.64;100371.09;1470327;87;21426;-85
2023/05/30 07:01:29;;;;;;;20.35;5.87;;;;;;;20.72;66.08;100371.31;1488104;87;21493;-87
2023/05/30 07:03:56;;;;;;;8.75;4.85;;;;;;;20.78;66.94;100372.32;1490103;87;21448;-84
2023/05/30 07:06:24;;;;;;;10.60;6.17;;;;;;;20.77;66.67;100372.00;1492459;87;21456;-84
2023/05/30 07:08:51;;;;;;;11.38;5.47;;;;;;;20.81;67.51;100373.23;1493695;86;21455;-87
2023/05/30 07:11:17;;;;;;;12.98;6.30;;;;;;;20.84;67.72;100372.27;1430840;90;21406;-87
2023/05/30 07:13:46;;;;;;;27.20;6.58;;;;;;;20.87;66.00;100350.84;1492397;87;21344;-86
2023/05/30 07:16:12;;;;;;;18.65;6.28;;;;;;;20.92;67.75;100359.09;1492143;87;22034;-85
2023/05/30 07:18:38;;;;;;;14.78;6.33;;;;;;;21.02;68.04;100364.80;1473040;87;21360;-86
2023/05/30 07:21:05;;;;;;;12.55;5.78;;;;;;;21.10;68.60;100360.50;1477639;87;21494;-84
2023/05/30 07:23:31;;;;;;;8.95;5.72;;;;;;;21.12;67.69;100355.73;1446339;89;21972;-83
2023/05/30 07:25:57;;;;;;;13.13;6.83;;;;;;;21.13;67.42;100349.30;1447859;90;21368;-83
2023/05/30 07:28:24;;;;;;;11.18;5.87;;;;;;;21.11;65.17;100350.56;1494203;87;21382;-84
2023/05/30 07:30:50;;;;;;;6.85;4.83;;;;;;;21.09;66.42;100364.25;1493210;86;21316;-84
2023/05/30 07:33:16;;;;;;;7.28;5.45;;;;;;;20.99;66.60;100362.55;1489612;86;21504;-85
2023/05/30 07:35:42;;;;;;;14.05;6.75;;;;;;;20.99;66.60;100363.89;1494845;87;22321;-85
2023/05/30 07:38:08;;;;;;;13.60;6.37;;;;;;;20.91;65.86;100369.53;1491969;86;21383;-84
2023/05/30 07:40:35;;;;;;;9.80;5.67;;;;;;;20.83;65.37;100367.09;1444664;89;21407;-85
2023/05/30 07:43:01;;;;;;;15.15;6.37;;;;;;;20.75;65.54;100368.72;1447327;90;22360;-87
2023/05/30 07:45:27;;;;;;;23.67;6.35;;;;;;;20.56;64.63;100374.50;1447663;90;21421;-84
2023/05/30 07:47:59;;;;;;;11.28;5.67;;;;;;;20.53;67.29;100374.92;1441072;90;21677;-83
2023/05/30 07:50:26;;;;;;;12.55;6.42;;;;;;;20.46;67.04;100372.25;1448680;90;21642;-84
2023/05/30 07:52:52;;;;;;;10.38;5.20;;;;;;;20.32;67.01;100373.34;1445498;90;21428;-84
2023/05/30 07:55:18;;;;;;;10.60;6.67;;;;;;;20.20;66.08;100369.15;1494794;87;21547;-85
2023/05/30 07:57:46;;;;;;;11.50;6.22;;;;;;;20.12;66.91;100374.75;1492100;86;21375;-84
2023/05/30 08:00:14;;;;;;;13.55;6.75;;;;;;;20.08;67.61;100374.33;1447160;89;21435;-84
2023/05/30 08:02:42;;;;;;;11.35;5.85;;;;;;;20.05;67.25;100372.91;1552954;87;22220;-85
2023/05/30 08:05:08;;;;;;;26.80;6.60;;;;;;;20.03;67.42;100372.81;1417726;87;21382;-83
2023/05/30 08:07:35;;;;;;;19.40;6.20;;;;;;;20.05;67.88;100372.06;1526576;89;21258;-85
2023/05/30 08:10:01;;;;;;;7.28;5.40;;;;;;;19.99;67.27;100376.94;1414335;87;21360;-82
2023/05/30 08:12:30;;;;;;;12.00;5.40;;;;;;;19.99;67.02;100372.91;1414670;87;22020;-84
2023/05/30 08:14:57;;;;;;;13.58;5.47;;;;;;;20.00;66.85;100378.61;1497972;87;21221;-83
2023/05/30 08:17:24;;;;;;;9.60;5.58;;;;;;;19.99;66.69;100376.94;1413925;86;21481;-82
2023/05/30 08:19:55;;;;;;;18.98;5.90;;;;;;;20.05;67.07;100370.23;1413078;86;21250;-84
2023/05/30 08:22:24;;;;;;;12.55;6.00;;;;;;;20.14;67.57;100372.16;1558548;86;21390;-85
2023/05/30 08:24:59;;;;;;;11.35;5.67;;;;;;;20.25;67.43;100374.69;1430311;90;22308;-83
2023/05/30 08:27:24;;;;;;;16.25;6.45;;;;;;;20.37;67.28;100374.84;1492241;87;21345;-84
2023/05/30 08:29:50;;;;;;;25.08;7.42;;;;;;;20.47;67.38;100376.58;1478730;87;21611;-85
2023/05/30 08:32:18;;;;;;;13.00;5.33;;;;;;;20.56;66.11;100373.16;1495398;86;21486;-83
2023/05/30 08:34:46;;;;;;;15.18;5.90;;;;;;;20.66;65.88;100376.22;1476906;87;21381;-83
2023/05/30 08:37:12;;;;;;;11.78;5.95;;;;;;;20.76;65.73;100382.46;1441577;89;22300;-83
2023/05/30 08:39:39;;;;;;;9.45;6.00;;;;;;;20.89;66.55;100372.98;1491297;87;21353;-84
2023/05/30 08:42:06;;;;;;;13.75;6.33;;;;;;;20.99;65.52;100380.56;1492295;86;21474;-83
2023/05/30 08:44:33;;;;;;;12.18;5.72;;;;;;;21.05;64.21;100377.00;1491375;86;22440;-84
2023/05/30 08:47:04;;;;;;;11.25;6.40;;;;;;;21.14;63.34;100381.89;1491602;86;21441;-83
2023/05/30 08:49:33;;;;;;;13.50;5.37;;;;;;;21.19;64.09;100373.98;1491924;86;22232;-83
2023/05/30 08:52:03;;;;;;;13.95;5.85;;;;;;;21.31;63.16;100371.94;1445296;90;21560;-84
2023/05/30 08:54:34;;;;;;;14.23;5.90;;;;;;;21.40;64.20;100376.03;1410358;87;21250;-83
2023/05/30 08:57:31;;;;;;;10.23;5.50;;;;;;;21.55;63.80;100379.23;1526451;90;22301;-82
2023/05/30 09:00:00;;;;;;;12.85;6.45;;;;;;;21.76;63.39;100378.52;1478377;87;22255;-82
2023/05/30 09:02:28;;;;;;;20.02;6.25;;;;;;;21.76;63.39;100378.52;1411574;86;22123;-83
2023/05/30 09:04:59;;;;;;;15.23;5.55;;;;;;;21.84;64.04;100368.80;1360872;90;21437;-83
2023/05/30 09:07:23;;;;;;;13.25;5.90;;;;;;;21.94;61.16;100377.18;1531013;89;21310;-83
2023/05/30 09:09:51;;;;;;;12.00;6.25;;;;;;;22.06;62.95;100380.77;1391215;88;21553;-83
2023/05/30 09:12:17;;;;;;;14.68;6.30;;;;;;;22.20;60.31;100377.97;1390435;89;21236;-84
2023/05/30 09:14:44;;;;;;;12.50;6.28;;;;;;;22.34;58.81;100382.16;1445720;88;21487;-82
2023/05/30 09:17:10;;;;;;;10.03;5.53;;;;;;;22.58;59.32;100377.69;1467782;88;22218;-82
2023/05/30 09:19:38;;;;;;;10.88;5.53;;;;;;;22.92;60.03;100376.17;1466379;89;22455;-83
2023/05/30 09:22:06;;;;;;;13.45;6.08;;;;;;;23.17;56.21;100376.58;1467794;89;21894;-81
2023/05/30 09:25:00;;;;;;;15.98;6.42;;;;;;;23.26;56.87;100377.06;1467261;89;21501;-83
2023/05/30 09:27:28;;;;;;;10.40;4.92;;;;;;;23.42;56.31;100373.16;1467227;88;21486;-82
2023/05/30 09:29:55;;;;;;;13.78;5.65;;;;;;;23.66;56.55;100379.91;1389798;88;21419;-81
2023/05/30 09:32:34;;;;;;;10.82;4.95;;;;;;;23.92;56.83;100371.88;1396456;89;21494;-81
2023/05/30 09:34:59;;;;;;;8.58;6.03;;;;;;;24.03;53.50;100379.14;1551039;88;21375;-82
2023/05/30 09:37:25;;;;;;;12.35;4.80;;;;;;;24.27;54.86;100380.45;1394466;89;21258;-82
2023/05/30 09:40:09;;;;;;;10.93;5.12;;;;;;;24.37;49.67;100378.47;1391606;88;21287;-84
2023/05/30 09:42:42;;;;;;;11.97;5.25;;;;;;;24.59;50.49;100371.37;1551532;88;21303;-81
2023/05/30 09:45:15;;;;;;;10.53;5.05;;;;;;;24.62;47.93;100363.30;1388380;88;21257;-83
2023/05/30 09:47:47;;;;;;;12.70;5.40;;;;;;;24.88;48.55;100363.23;1551515;88;21184;-82
2023/05/30 09:50:17;;;;;;;9.90;4.53;;;;;;;25.13;48.55;100365.57;1387882;89;21575;-83
2023/05/30 09:52:44;;;;;;;;;;;;;;;25.21;45.71;100369.27;1552926;88;22160;-82
2023/05/30 09:55:15;;;;;;;8.90;4.37;;;;;;;25.32;46.17;100366.16;1397216;88;20247;-82
2023/05/30 09:57:47;;;;;;;11.12;4.92;;;;;;;25.24;45.51;100366.06;1390378;89;22256;-82
2023/05/30 10:00:17;;;;;;;8.18;4.92;;;;;;;25.34;47.56;100359.44;1551259;88;21199;-84
2023/05/30 10:02:47;;;;;;;9.28;4.75;;;;;;;25.38;45.97;100359.78;1423071;88;21567;-83
2023/05/30 10:05:23;;;;;;;8.40;4.65;;;;;;;25.42;46.67;100355.50;1451951;87;21516;-83
2023/05/30 10:07:52;;;;;;;12.30;5.15;;;;;;;25.39;46.04;100358.70;1487212;87;21368;-84
2023/05/30 10:10:19;;;;;;;8.80;5.10;;;;;;;25.34;45.24;100357.27;1488876;87;22372;-82
2023/05/30 10:12:55;;;;;;;13.85;5.58;;;;;;;25.17;45.05;100354.02;1441839;90;21667;-82
2023/05/30 10:15:29;;;;;;;8.40;4.65;;;;;;;25.33;47.43;100344.80;1488968;86;21353;-83
2023/05/30 10:18:07;;;;;;;14.35;4.92;;;;;;;25.32;44.75;100349.91;1522071;90;21670;-84
2023/05/30 10:20:38;;;;;;;9.50;4.50;;;;;;;25.35;46.11;100345.38;1558393;87;22092;-82
2023/05/30 10:23:07;;;;;;;10.20;4.87;;;;;;;25.54;47.20;100354.86;1411467;87;21287;-82
2023/05/30 10:25:37;;;;;;;12.20;4.72;;;;;;;25.51;45.73;100352.66;1409322;87;21242;-82
2023/05/30 10:28:09;;;;;;;12.78;4.72;;;;;;;25.61;45.17;100347.40;1554126;87;21317;-83
2023/05/30 10:30:35;;;;;;;4.97;3.92;;;;;;;25.80;46.09;100349.81;1407724;87;21431;-82
2023/05/30 10:33:10;;;;;;;7.15;4.83;;;;;;;25.89;44.54;100342.91;1396419;88;21213;-82
2023/05/30 10:35:35;;;;;;;17.70;5.42;;;;;;;25.77;43.67;100344.89;1483178;87;22650;-82
2023/05/30 10:38:07;;;;;;;7.33;5.08;;;;;;;25.86;43.10;100342.06;1488694;87;21720;-82
2023/05/30 10:41:02;;;;;;;12.63;4.78;;;;;;;25.95;43.77;100345.16;1438019;90;21429;-82
2023/05/30 10:43:58;;;;;;;10.13;3.90;;;;;;;26.16;43.63;100344.90;1487444;87;21456;-83
2023/05/30 10:46:39;;;;;;;5.42;3.90;;;;;;;26.13;41.18;100347.58;1441122;90;21702;-83
2023/05/30 10:49:12;;;;;;;6.60;3.60;;;;;;;26.34;42.29;100339.13;1492245;87;21375;-82
2023/05/30 10:52:05;;;;;;;8.88;4.58;;;;;;;26.43;42.30;100338.95;1421554;90;22352;-84
2023/05/30 10:54:34;;;;;;;9.20;5.00;;;;;;;26.55;40.97;100335.58;1489753;86;21382;-82
2023/05/30 10:57:20;;;;;;;11.33;4.22;;;;;;;26.61;41.01;100331.57;1486756;87;21455;-85
2023/05/30 10:59:48;;;;;;;10.03;4.45;;;;;;;26.55;39.74;100330.16;1441860;90;21435;-84
2023/05/30 11:02:20;;;;;;;10.65;4.28;;;;;;;26.67;40.11;100323.76;1441446;90;21457;-84
2023/05/30 11:04:50;;;;;;;6.10;4.12;;;;;;;26.70;40.42;100328.67;1485574;87;22617;-85
2023/05/30 11:07:18;;;;;;;7.53;4.67;;;;;;;26.63;39.34;100326.72;1445219;90;21615;-84
2023/05/30 11:10:11;;;;;;;6.00;4.30;;;;;;;26.53;40.26;100330.97;1490758;87;21448;-83
2023/05/30 11:12:48;;;;;;;10.80;4.62;;;;;;;26.65;40.13;100324.58;1579278;86;21279;-84
2023/05/30 11:15:19;;;;;;;12.80;4.62;;;;;;;26.71;40.86;100317.56;1579459;86;21369;-84
2023/05/30 11:17:46;;;;;;;13.65;4.50;;;;;;;26.66;38.53;100315.34;1489528;90;21464;-81
2023/05/30 11:20:19;;;;;;;8.13;4.22;;;;;;;26.76;39.37;100309.48;1451119;90;22455;-84
2023/05/30 11:23:09;;;;;;;10.10;4.42;;;;;;;26.92;39.90;100313.67;1491751;87;21419;-82
2023/05/30 11:25:36;;;;;;;8.53;4.08;;;;;;;26.89;39.41;100312.84;1493025;86;21460;-83